createdAt,value
2024-04-22T00:03:08.470Z,3.35
2024-04-22T00:08:30.319Z,3.88
2024-04-22T00:13:51.729Z,3.90
2024-04-22T00:19:13.386Z,3.03
2024-04-22T00:24:34.724Z,4.72
2024-04-22T00:29:56.366Z,3.42
2024-04-22T00:35:18.179Z,3.92
2024-04-22T00:40:39.729Z,5.15
2024-04-22T00:46:01.298Z,4.88
2024-04-22T00:51:23.478Z,5.32
2024-04-22T00:56:46.029Z,4.72
2024-04-22T01:02:07.621Z,3.70
2024-04-22T01:07:29.841Z,5.45
2024-04-22T01:12:51.789Z,4.93
2024-04-22T01:18:20.963Z,3.78
2024-04-22T01:23:45.587Z,4.60
2024-04-22T01:29:07.072Z,6.18
2024-04-22T01:34:28.942Z,6.78
2024-04-22T01:39:50.212Z,4.10
2024-04-22T01:45:11.782Z,4.40
2024-04-22T01:50:33.230Z,5.03
2024-04-22T01:56:01.370Z,6.43
2024-04-22T02:01:23.090Z,6.43
2024-04-22T02:06:44.757Z,4.35
2024-04-22T02:12:06.800Z,4.78
2024-04-22T02:17:28.311Z,5.25
2024-04-22T02:22:49.867Z,5.78
2024-04-22T02:28:11.546Z,3.90
2024-04-22T02:33:32.989Z,4.80
2024-04-22T02:38:54.367Z,5.45
2024-04-22T02:44:15.829Z,5.82
2024-04-22T02:49:37.406Z,2.90
2024-04-22T02:54:59.121Z,3.20
2024-04-22T03:00:20.606Z,4.63
2024-04-22T03:05:42.170Z,3.20
2024-04-22T03:11:04.014Z,3.25
2024-04-22T03:16:25.488Z,4.45
2024-04-22T03:21:47.263Z,4.50
2024-04-22T03:27:08.806Z,4.95
2024-04-22T03:32:30.361Z,4.25
2024-04-22T03:37:51.964Z,3.83
2024-04-22T03:43:13.508Z,2.85
2024-04-22T03:48:34.920Z,5.57
2024-04-22T03:53:56.711Z,4.93
2024-04-22T03:59:18.278Z,5.68
2024-04-22T04:04:40.076Z,6.32
2024-04-22T04:10:01.632Z,5.32
2024-04-22T04:15:23.093Z,4.85
2024-04-22T04:20:44.946Z,5.45
2024-04-22T04:26:06.853Z,6.43
2024-04-22T04:31:28.162Z,9.80
2024-04-22T04:36:49.579Z,6.70
2024-04-22T04:42:11.001Z,5.45
2024-04-22T04:47:32.579Z,7.63
2024-04-22T04:52:54.168Z,5.50
2024-04-22T04:58:15.982Z,7.25
2024-04-22T05:03:37.690Z,5.75
2024-04-22T05:08:59.102Z,7.30
2024-04-22T05:14:20.538Z,7.18
2024-04-22T05:19:42.249Z,5.65
2024-04-22T05:25:04.011Z,6.53
2024-04-22T05:30:25.799Z,8.40
2024-04-22T05:35:47.616Z,6.88
2024-04-22T05:41:10.276Z,8.25
2024-04-22T05:46:32.127Z,7.82
2024-04-22T05:51:53.989Z,8.13
2024-04-22T05:57:15.560Z,6.28
2024-04-22T06:02:36.983Z,8.73
2024-04-22T06:07:58.343Z,6.80
2024-04-22T06:13:20.283Z,6.95
2024-04-22T06:18:41.938Z,5.32
2024-04-22T06:24:04.011Z,7.35
2024-04-22T06:29:25.568Z,7.25
2024-04-22T06:34:47.199Z,6.80
2024-04-22T06:40:09.430Z,5.88
2024-04-22T06:45:31.515Z,4.30
2024-04-22T06:50:53.371Z,4.75
2024-04-22T06:56:14.815Z,4.88
2024-04-22T07:01:40.270Z,3.65
2024-04-22T07:07:02.416Z,5.53
2024-04-22T07:12:23.891Z,5.03
2024-04-22T07:17:45.949Z,4.40
2024-04-22T07:23:07.715Z,4.03
2024-04-22T07:28:29.473Z,4.75
2024-04-22T07:33:51.608Z,4.47
2024-04-22T07:39:14.780Z,5.40
2024-04-22T07:44:36.235Z,7.40
2024-04-22T07:49:57.728Z,6.15
2024-04-22T07:55:19.661Z,3.80
2024-04-22T08:00:41.747Z,3.78
2024-04-22T08:06:11.021Z,5.72
2024-04-22T08:11:32.957Z,5.03
2024-04-22T08:16:54.604Z,5.10
2024-04-22T08:22:19.263Z,4.18
2024-04-22T08:27:43.075Z,3.88
2024-04-22T08:33:05.227Z,5.32
2024-04-22T08:38:27.613Z,3.55
2024-04-22T08:43:49.692Z,3.85
2024-04-22T08:49:11.058Z,5.32
2024-04-22T08:54:32.842Z,4.53
2024-04-22T08:59:54.412Z,2.42
2024-04-22T09:05:16.201Z,4.03
2024-04-22T09:11:06.430Z,3.67
2024-04-22T09:16:19.801Z,5.88
2024-04-22T09:21:41.365Z,3.28
2024-04-22T09:27:02.716Z,3.25
2024-04-22T09:32:30.183Z,5.28
2024-04-22T09:37:52.973Z,3.33
2024-04-22T09:43:15.744Z,3.30
2024-04-22T09:48:38.826Z,3.00
2024-04-22T09:54:00.458Z,2.08
2024-04-22T09:59:23.088Z,2.55
2024-04-22T10:04:45.749Z,1.90
2024-04-22T10:10:11.797Z,2.45
2024-04-22T10:15:34.632Z,3.75
2024-04-22T10:21:04.801Z,2.63
2024-04-22T10:26:26.312Z,5.10
2024-04-22T10:31:47.847Z,4.30
2024-04-22T10:37:09.619Z,3.90
2024-04-22T10:42:31.098Z,4.28
2024-04-22T10:48:05.077Z,3.60
2024-04-22T10:53:35.834Z,3.33
2024-04-22T10:58:57.820Z,3.20
2024-04-22T11:04:20.901Z,2.95
2024-04-22T11:09:42.516Z,3.22
2024-04-22T11:15:04.365Z,2.88
2024-04-22T11:20:27.533Z,3.42
2024-04-22T11:25:49.367Z,2.13
2024-04-22T11:31:10.665Z,2.55
2024-04-22T11:36:31.842Z,2.33
2024-04-22T11:41:53.462Z,1.83
2024-04-22T11:47:15.393Z,2.95
2024-04-22T11:52:37.156Z,2.70
2024-04-22T11:57:58.935Z,3.35
2024-04-22T12:03:20.381Z,2.38
2024-04-22T12:08:41.791Z,2.65
2024-04-22T12:14:03.456Z,1.42
2024-04-22T12:19:25.301Z,4.38
2024-04-22T12:24:46.439Z,2.70
2024-04-22T12:30:08.844Z,3.17
2024-04-22T12:35:30.300Z,1.83
2024-04-22T12:40:51.908Z,2.17
2024-04-22T12:46:13.640Z,1.75
2024-04-22T12:51:35.113Z,3.30
2024-04-22T12:56:56.317Z,1.33
2024-04-22T13:02:17.685Z,2.15
2024-04-22T13:07:39.214Z,3.80
2024-04-22T13:13:02.820Z,4.32
2024-04-22T13:18:25.981Z,3.00
2024-04-22T13:23:47.719Z,2.63
2024-04-22T13:29:09.630Z,4.40
2024-04-22T13:34:31.011Z,2.35
2024-04-22T13:39:52.482Z,2.70
2024-04-22T13:45:13.967Z,2.35
2024-04-22T13:50:35.544Z,3.70
2024-04-22T13:55:57.347Z,3.00
2024-04-22T14:01:18.983Z,2.10
2024-04-22T14:06:40.348Z,3.05
2024-04-22T14:12:01.940Z,2.05
2024-04-22T14:17:23.927Z,3.50
2024-04-22T14:22:45.636Z,2.25
2024-04-22T14:28:07.279Z,1.83
2024-04-22T14:33:29.081Z,2.97
2024-04-22T14:38:50.732Z,2.15
2024-04-22T14:44:12.925Z,2.08
2024-04-22T14:49:34.507Z,2.50
2024-04-22T14:54:56.002Z,3.55
2024-04-22T15:00:17.608Z,1.40
2024-04-22T15:05:39.267Z,1.90
2024-04-22T15:11:03.060Z,2.60
2024-04-22T15:16:26.648Z,3.17
2024-04-22T15:21:48.118Z,1.58
2024-04-22T15:27:09.564Z,3.95
2024-04-22T15:32:31.185Z,1.88
2024-04-22T15:37:53.001Z,2.90
2024-04-22T15:43:14.598Z,2.80
2024-04-22T15:48:36.477Z,2.30
2024-04-22T15:53:58.044Z,2.15
2024-04-22T15:59:19.638Z,1.90
2024-04-22T16:04:40.951Z,3.70
2024-04-22T16:10:02.663Z,2.50
2024-04-22T16:15:26.148Z,2.97
2024-04-22T16:20:56.338Z,5.40
2024-04-22T16:26:22.789Z,4.72
2024-04-22T16:31:44.550Z,4.05
2024-04-22T16:37:06.241Z,2.83
2024-04-22T16:42:27.986Z,4.63
2024-04-22T16:47:49.671Z,2.78
2024-04-22T16:53:11.155Z,5.32
2024-04-22T16:58:33.091Z,4.07
2024-04-22T17:03:55.016Z,4.90
2024-04-22T17:09:16.461Z,2.65
2024-04-22T17:14:38.006Z,2.70
2024-04-22T17:19:59.518Z,4.50
2024-04-22T17:25:21.128Z,2.38
2024-04-22T17:30:42.706Z,2.72
2024-04-22T17:36:04.286Z,3.88
2024-04-22T17:41:26.060Z,3.20
2024-04-22T17:46:47.722Z,4.68
2024-04-22T17:52:09.314Z,3.42
2024-04-22T17:57:31.240Z,3.45
2024-04-22T18:02:52.687Z,4.30
2024-04-22T18:08:14.302Z,4.88
2024-04-22T18:13:35.665Z,4.20
2024-04-22T18:18:57.411Z,3.85
2024-04-22T18:24:18.995Z,4.00
2024-04-22T18:29:40.680Z,4.43
2024-04-22T18:35:02.648Z,5.95
2024-04-22T18:40:24.174Z,5.03
2024-04-22T18:45:46.141Z,4.97
2024-04-22T18:51:07.742Z,6.53
2024-04-22T18:56:29.051Z,4.30
2024-04-22T19:01:50.548Z,6.68
2024-04-22T19:07:11.926Z,4.63
2024-04-22T19:12:33.396Z,4.57
2024-04-22T19:17:54.951Z,6.07
2024-04-22T19:23:16.722Z,5.50
2024-04-22T19:28:38.715Z,6.65
2024-04-22T19:34:00.054Z,6.22
2024-04-22T19:39:21.878Z,6.55
2024-04-22T19:44:43.407Z,5.78
2024-04-22T19:50:06.269Z,5.07
2024-04-22T19:55:27.849Z,5.40
2024-04-22T20:00:49.265Z,6.75
2024-04-22T20:06:10.836Z,7.50
2024-04-22T20:11:32.598Z,7.68
2024-04-22T20:16:54.162Z,6.38
2024-04-22T20:22:15.323Z,6.03
2024-04-22T20:27:36.881Z,8.25
2024-04-22T20:32:58.641Z,7.28
2024-04-22T20:38:20.423Z,7.00
2024-04-22T20:43:43.312Z,6.38
2024-04-22T20:49:04.577Z,5.15
2024-04-22T20:54:26.001Z,7.13
2024-04-22T20:59:47.391Z,6.95
2024-04-22T21:05:08.855Z,8.60
2024-04-22T21:10:30.479Z,9.30
2024-04-22T21:15:51.776Z,7.88
2024-04-22T21:21:13.172Z,10.93
2024-04-22T21:26:34.659Z,10.18
2024-04-22T21:31:56.308Z,7.45
2024-04-22T21:37:17.744Z,8.32
2024-04-22T21:42:39.483Z,7.10
2024-04-22T21:48:01.016Z,11.45
2024-04-22T21:53:22.488Z,9.38
2024-04-22T21:59:40.829Z,8.15
2024-04-22T22:05:58.896Z,9.13
2024-04-22T22:11:20.373Z,9.98
2024-04-22T22:16:41.988Z,10.48
2024-04-22T22:22:03.430Z,9.85
2024-04-22T22:27:25.035Z,9.52
2024-04-22T22:32:46.772Z,12.55
2024-04-22T22:38:08.217Z,10.02
2024-04-22T22:43:29.640Z,8.48
2024-04-22T22:48:51.038Z,11.50
2024-04-22T22:54:12.572Z,10.45
2024-04-22T22:59:34.168Z,13.75
2024-04-22T23:04:55.835Z,12.85
2024-04-22T23:10:17.747Z,11.52
2024-04-22T23:15:39.080Z,11.15
2024-04-22T23:21:00.534Z,12.48
2024-04-22T23:26:21.993Z,11.68
2024-04-22T23:31:43.539Z,11.43
2024-04-22T23:37:05.159Z,11.88
2024-04-22T23:42:26.546Z,10.18
2024-04-22T23:47:48.249Z,12.70
2024-04-22T23:53:09.535Z,11.35
2024-04-22T23:58:31.028Z,14.70
